sensor_id;sensor_type;location;lat;lon;timestamp;pressure;altitude;pressure_sealevel;temperature
16956;BMP180;8594;52.052;8.354;2023-03-05T00:00:12;100997.00;;;7.40
16956;BMP180;8594;52.052;8.354;2023-03-05T00:02:39;101000.00;;;7.20
16956;BMP180;8594;52.052;8.354;2023-03-05T00:05:07;101000.00;;;7.30
16956;BMP180;8594;52.052;8.354;2023-03-05T00:07:35;100993.00;;;7.50
16956;BMP180;8594;52.052;8.354;2023-03-05T00:10:04;100986.00;;;7.60
16956;BMP180;8594;52.052;8.354;2023-03-05T00:12:31;100985.00;;;7.60
16956;BMP180;8594;52.052;8.354;2023-03-05T00:14:58;100986.00;;;7.50
16956;BMP180;8594;52.052;8.354;2023-03-05T00:17:25;100988.00;;;7.50
16956;BMP180;8594;52.052;8.354;2023-03-05T00:19:52;100990.00;;;7.70
16956;BMP180;8594;52.052;8.354;2023-03-05T00:22:19;100985.00;;;7.70
16956;BMP180;8594;52.052;8.354;2023-03-05T00:24:49;100979.00;;;7.30
16956;BMP180;8594;52.052;8.354;2023-03-05T00:27:16;100982.00;;;7.40
16956;BMP180;8594;52.052;8.354;2023-03-05T00:29:43;100972.00;;;7.30
16956;BMP180;8594;52.052;8.354;2023-03-05T00:32:10;100971.00;;;7.50
16956;BMP180;8594;52.052;8.354;2023-03-05T00:34:37;100975.00;;;7.20
16956;BMP180;8594;52.052;8.354;2023-03-05T00:37:04;100969.00;;;7.40
16956;BMP180;8594;52.052;8.354;2023-03-05T00:39:32;100962.00;;;7.20
16956;BMP180;8594;52.052;8.354;2023-03-05T00:42:00;100960.00;;;6.90
16956;BMP180;8594;52.052;8.354;2023-03-05T00:44:27;100962.00;;;6.70
16956;BMP180;8594;52.052;8.354;2023-03-05T00:46:54;100965.00;;;6.80
16956;BMP180;8594;52.052;8.354;2023-03-05T00:49:21;100961.00;;;7.20
16956;BMP180;8594;52.052;8.354;2023-03-05T00:51:48;100963.00;;;7.50
16956;BMP180;8594;52.052;8.354;2023-03-05T00:54:15;100960.00;;;7.50
16956;BMP180;8594;52.052;8.354;2023-03-05T00:56:41;100946.00;;;7.20
16956;BMP180;8594;52.052;8.354;2023-03-05T00:59:10;100938.00;;;7.20
16956;BMP180;8594;52.052;8.354;2023-03-05T01:01:38;100944.00;;;7.30
16956;BMP180;8594;52.052;8.354;2023-03-05T01:04:04;100934.00;;;7.70
16956;BMP180;8594;52.052;8.354;2023-03-05T01:06:31;100938.00;;;7.30
16956;BMP180;8594;52.052;8.354;2023-03-05T01:08:58;100937.00;;;7.60
16956;BMP180;8594;52.052;8.354;2023-03-05T01:11:25;100923.00;;;7.30
16956;BMP180;8594;52.052;8.354;2023-03-05T01:13:52;100920.00;;;7.00
16956;BMP180;8594;52.052;8.354;2023-03-05T01:16:20;100919.00;;;7.10
16956;BMP180;8594;52.052;8.354;2023-03-05T01:18:47;100918.00;;;6.90
16956;BMP180;8594;52.052;8.354;2023-03-05T01:21:14;100917.00;;;7.40
16956;BMP180;8594;52.052;8.354;2023-03-05T01:23:40;100915.00;;;7.50
16956;BMP180;8594;52.052;8.354;2023-03-05T01:26:07;100906.00;;;7.20
16956;BMP180;8594;52.052;8.354;2023-03-05T01:28:34;100908.00;;;7.50
16956;BMP180;8594;52.052;8.354;2023-03-05T01:31:07;100909.00;;;7.30
16956;BMP180;8594;52.052;8.354;2023-03-05T01:33:35;100905.00;;;7.60
16956;BMP180;8594;52.052;8.354;2023-03-05T01:36:07;100901.00;;;7.20
16956;BMP180;8594;52.052;8.354;2023-03-05T01:38:37;100902.00;;;7.40
16956;BMP180;8594;52.052;8.354;2023-03-05T01:41:03;100894.00;;;7.50
16956;BMP180;8594;52.052;8.354;2023-03-05T01:43:31;100888.00;;;7.20
16956;BMP180;8594;52.052;8.354;2023-03-05T01:46:32;100885.00;;;7.30
16956;BMP180;8594;52.052;8.354;2023-03-05T01:49:09;100879.00;;;7.10
16956;BMP180;8594;52.052;8.354;2023-03-05T01:51:41;100871.00;;;7.00
16956;BMP180;8594;52.052;8.354;2023-03-05T01:54:13;100871.00;;;7.20
16956;BMP180;8594;52.052;8.354;2023-03-05T01:56:42;100862.00;;;6.60
16956;BMP180;8594;52.052;8.354;2023-03-05T01:59:11;100864.00;;;6.40
16956;BMP180;8594;52.052;8.354;2023-03-05T02:01:43;100860.00;;;6.90
16956;BMP180;8594;52.052;8.354;2023-03-05T02:04:16;100859.00;;;6.50
16956;BMP180;8594;52.052;8.354;2023-03-05T02:06:45;100863.00;;;6.50
16956;BMP180;8594;52.052;8.354;2023-03-05T02:09:12;100854.00;;;6.70
16956;BMP180;8594;52.052;8.354;2023-03-05T02:11:40;100855.00;;;6.90
16956;BMP180;8594;52.052;8.354;2023-03-05T02:14:07;100856.00;;;7.00
16956;BMP180;8594;52.052;8.354;2023-03-05T02:16:37;100859.00;;;7.20
16956;BMP180;8594;52.052;8.354;2023-03-05T02:19:06;100848.00;;;7.20
16956;BMP180;8594;52.052;8.354;2023-03-05T02:21:40;100848.00;;;7.00
16956;BMP180;8594;52.052;8.354;2023-03-05T02:24:11;100838.00;;;7.40
16956;BMP180;8594;52.052;8.354;2023-03-05T02:26:39;100838.00;;;7.30
16956;BMP180;8594;52.052;8.354;2023-03-05T02:29:09;100833.00;;;7.10
16956;BMP180;8594;52.052;8.354;2023-03-05T02:31:38;100828.00;;;6.80
16956;BMP180;8594;52.052;8.354;2023-03-05T02:34:05;100830.00;;;6.90
16956;BMP180;8594;52.052;8.354;2023-03-05T02:36:32;100843.00;;;6.90
16956;BMP180;8594;52.052;8.354;2023-03-05T02:39:00;100833.00;;;7.20
16956;BMP180;8594;52.052;8.354;2023-03-05T02:41:27;100829.00;;;7.20
16956;BMP180;8594;52.052;8.354;2023-03-05T02:43:54;100823.00;;;6.90
16956;BMP180;8594;52.052;8.354;2023-03-05T02:46:21;100818.00;;;6.70
16956;BMP180;8594;52.052;8.354;2023-03-05T02:48:48;100818.00;;;6.60
16956;BMP180;8594;52.052;8.354;2023-03-05T02:51:16;100812.00;;;6.60
16956;BMP180;8594;52.052;8.354;2023-03-05T02:53:43;100814.00;;;6.20
16956;BMP180;8594;52.052;8.354;2023-03-05T02:56:11;100812.00;;;7.00
16956;BMP180;8594;52.052;8.354;2023-03-05T02:58:38;100808.00;;;6.70
16956;BMP180;8594;52.052;8.354;2023-03-05T03:01:05;100797.00;;;7.10
16956;BMP180;8594;52.052;8.354;2023-03-05T03:03:32;100805.00;;;7.10
16956;BMP180;8594;52.052;8.354;2023-03-05T03:05:58;100797.00;;;6.70
16956;BMP180;8594;52.052;8.354;2023-03-05T03:08:26;100790.00;;;6.30
16956;BMP180;8594;52.052;8.354;2023-03-05T03:10:53;100782.00;;;7.00
16956;BMP180;8594;52.052;8.354;2023-03-05T03:13:22;100775.00;;;6.90
16956;BMP180;8594;52.052;8.354;2023-03-05T03:15:49;100786.00;;;7.10
16956;BMP180;8594;52.052;8.354;2023-03-05T03:18:16;100781.00;;;6.40
16956;BMP180;8594;52.052;8.354;2023-03-05T03:20:43;100781.00;;;6.80
16956;BMP180;8594;52.052;8.354;2023-03-05T03:23:10;100777.00;;;6.70
16956;BMP180;8594;52.052;8.354;2023-03-05T03:25:36;100768.00;;;6.90
16956;BMP180;8594;52.052;8.354;2023-03-05T03:28:03;100769.00;;;6.70
16956;BMP180;8594;52.052;8.354;2023-03-05T03:30:31;100766.00;;;6.50
16956;BMP180;8594;52.052;8.354;2023-03-05T03:32:58;100768.00;;;6.40
16956;BMP180;8594;52.052;8.354;2023-03-05T03:35:25;100763.00;;;6.70
16956;BMP180;8594;52.052;8.354;2023-03-05T03:37:52;100755.00;;;6.10
16956;BMP180;8594;52.052;8.354;2023-03-05T03:40:19;100757.00;;;6.70
16956;BMP180;8594;52.052;8.354;2023-03-05T03:42:46;100750.00;;;6.40
16956;BMP180;8594;52.052;8.354;2023-03-05T03:45:14;100748.00;;;6.90
16956;BMP180;8594;52.052;8.354;2023-03-05T03:47:42;100742.00;;;5.80
16956;BMP180;8594;52.052;8.354;2023-03-05T03:50:10;100746.00;;;6.60
16956;BMP180;8594;52.052;8.354;2023-03-05T03:52:37;100741.00;;;6.40
16956;BMP180;8594;52.052;8.354;2023-03-05T03:55:05;100737.00;;;6.50
16956;BMP180;8594;52.052;8.354;2023-03-05T03:57:32;100743.00;;;6.50
16956;BMP180;8594;52.052;8.354;2023-03-05T03:59:59;100738.00;;;6.90
16956;BMP180;8594;52.052;8.354;2023-03-05T04:02:26;100735.00;;;7.10
16956;BMP180;8594;52.052;8.354;2023-03-05T04:04:54;100734.00;;;6.30
16956;BMP180;8594;52.052;8.354;2023-03-05T04:07:24;100727.00;;;6.30
16956;BMP180;8594;52.052;8.354;2023-03-05T04:09:51;100727.00;;;6.90
16956;BMP180;8594;52.052;8.354;2023-03-05T04:12:18;100721.00;;;6.70
16956;BMP180;8594;52.052;8.354;2023-03-05T04:14:45;100724.00;;;6.80
16956;BMP180;8594;52.052;8.354;2023-03-05T04:17:13;100713.00;;;7.00
16956;BMP180;8594;52.052;8.354;2023-03-05T04:19:41;100714.00;;;7.00
16956;BMP180;8594;52.052;8.354;2023-03-05T04:22:12;100704.00;;;6.80
16956;BMP180;8594;52.052;8.354;2023-03-05T04:24:40;100716.00;;;6.60
16956;BMP180;8594;52.052;8.354;2023-03-05T04:27:08;100708.00;;;6.50
16956;BMP180;8594;52.052;8.354;2023-03-05T04:29:34;100713.00;;;6.50
16956;BMP180;8594;52.052;8.354;2023-03-05T04:32:02;100700.00;;;6.40
16956;BMP180;8594;52.052;8.354;2023-03-05T04:34:29;100702.00;;;6.40
16956;BMP180;8594;52.052;8.354;2023-03-05T04:36:57;100698.00;;;6.60
16956;BMP180;8594;52.052;8.354;2023-03-05T04:39:25;100699.00;;;6.80
16956;BMP180;8594;52.052;8.354;2023-03-05T04:41:52;100693.00;;;6.50
16956;BMP180;8594;52.052;8.354;2023-03-05T04:44:19;100698.00;;;6.70
16956;BMP180;8594;52.052;8.354;2023-03-05T04:46:47;100688.00;;;6.90
16956;BMP180;8594;52.052;8.354;2023-03-05T04:49:14;100692.00;;;7.00
16956;BMP180;8594;52.052;8.354;2023-03-05T04:51:41;100677.00;;;7.00
16956;BMP180;8594;52.052;8.354;2023-03-05T04:54:08;100694.00;;;6.60
16956;BMP180;8594;52.052;8.354;2023-03-05T04:56:36;100691.00;;;6.60
16956;BMP180;8594;52.052;8.354;2023-03-05T04:59:03;100693.00;;;6.70
16956;BMP180;8594;52.052;8.354;2023-03-05T05:01:30;100691.00;;;6.90
16956;BMP180;8594;52.052;8.354;2023-03-05T05:03:57;100693.00;;;6.70
16956;BMP180;8594;52.052;8.354;2023-03-05T05:06:24;100691.00;;;6.50
16956;BMP180;8594;52.052;8.354;2023-03-05T05:08:51;100686.00;;;6.80
16956;BMP180;8594;52.052;8.354;2023-03-05T05:11:17;100683.00;;;6.60
16956;BMP180;8594;52.052;8.354;2023-03-05T05:13:45;100683.00;;;6.10
16956;BMP180;8594;52.052;8.354;2023-03-05T05:16:12;100678.00;;;6.20
16956;BMP180;8594;52.052;8.354;2023-03-05T05:18:40;100673.00;;;6.30
16956;BMP180;8594;52.052;8.354;2023-03-05T05:21:07;100680.00;;;6.40
16956;BMP180;8594;52.052;8.354;2023-03-05T05:23:35;100673.00;;;6.50
16956;BMP180;8594;52.052;8.354;2023-03-05T05:26:04;100670.00;;;6.20
16956;BMP180;8594;52.052;8.354;2023-03-05T05:28:31;100672.00;;;6.60
16956;BMP180;8594;52.052;8.354;2023-03-05T05:31:04;100676.00;;;6.70
16956;BMP180;8594;52.052;8.354;2023-03-05T05:33:31;100671.00;;;6.20
16956;BMP180;8594;52.052;8.354;2023-03-05T05:35:58;100664.00;;;6.30
16956;BMP180;8594;52.052;8.354;2023-03-05T05:38:25;100671.00;;;6.40
16956;BMP180;8594;52.052;8.354;2023-03-05T05:40:52;100673.00;;;6.10
16956;BMP180;8594;52.052;8.354;2023-03-05T05:43:18;100675.00;;;5.90
16956;BMP180;8594;52.052;8.354;2023-03-05T05:45:45;100663.00;;;5.80
16956;BMP180;8594;52.052;8.354;2023-03-05T05:48:13;100665.00;;;6.00
16956;BMP180;8594;52.052;8.354;2023-03-05T05:50:40;100658.00;;;6.00
16956;BMP180;8594;52.052;8.354;2023-03-05T05:53:07;100664.00;;;6.20
16956;BMP180;8594;52.052;8.354;2023-03-05T05:55:34;100664.00;;;6.20
16956;BMP180;8594;52.052;8.354;2023-03-05T05:58:01;100663.00;;;6.40
16956;BMP180;8594;52.052;8.354;2023-03-05T06:00:28;100657.00;;;5.90
16956;BMP180;8594;52.052;8.354;2023-03-05T06:02:54;100662.00;;;6.00
16956;BMP180;8594;52.052;8.354;2023-03-05T06:05:23;100679.00;;;6.20
16956;BMP180;8594;52.052;8.354;2023-03-05T06:07:50;100670.00;;;6.00
16956;BMP180;8594;52.052;8.354;2023-03-05T06:10:17;100662.00;;;5.90
16956;BMP180;8594;52.052;8.354;2023-03-05T06:12:44;100662.00;;;6.00
16956;BMP180;8594;52.052;8.354;2023-03-05T06:15:10;100664.00;;;6.30
16956;BMP180;8594;52.052;8.354;2023-03-05T06:17:37;100665.00;;;6.30
16956;BMP180;8594;52.052;8.354;2023-03-05T06:20:05;100654.00;;;6.20
16956;BMP180;8594;52.052;8.354;2023-03-05T06:22:37;100666.00;;;5.90
16956;BMP180;8594;52.052;8.354;2023-03-05T06:25:06;100657.00;;;6.20
16956;BMP180;8594;52.052;8.354;2023-03-05T06:27:34;100661.00;;;6.00
16956;BMP180;8594;52.052;8.354;2023-03-05T06:30:01;100647.00;;;6.20
16956;BMP180;8594;52.052;8.354;2023-03-05T06:32:28;100657.00;;;6.40
16956;BMP180;8594;52.052;8.354;2023-03-05T06:34:55;100648.00;;;6.40
16956;BMP180;8594;52.052;8.354;2023-03-05T06:37:22;100643.00;;;6.20
16956;BMP180;8594;52.052;8.354;2023-03-05T06:39:50;100655.00;;;6.00
16956;BMP180;8594;52.052;8.354;2023-03-05T06:42:17;100648.00;;;6.10
16956;BMP180;8594;52.052;8.354;2023-03-05T06:44:45;100648.00;;;6.20
16956;BMP180;8594;52.052;8.354;2023-03-05T06:47:12;100643.00;;;5.90
16956;BMP180;8594;52.052;8.354;2023-03-05T06:49:39;100652.00;;;6.30
16956;BMP180;8594;52.052;8.354;2023-03-05T06:52:06;100651.00;;;6.30
16956;BMP180;8594;52.052;8.354;2023-03-05T06:54:35;100649.00;;;6.30
16956;BMP180;8594;52.052;8.354;2023-03-05T06:57:03;100639.00;;;5.80
16956;BMP180;8594;52.052;8.354;2023-03-05T06:59:30;100648.00;;;6.10
16956;BMP180;8594;52.052;8.354;2023-03-05T07:01:57;100653.00;;;6.00
16956;BMP180;8594;52.052;8.354;2023-03-05T07:04:24;100647.00;;;6.20
16956;BMP180;8594;52.052;8.354;2023-03-05T07:06:50;100641.00;;;6.10
16956;BMP180;8594;52.052;8.354;2023-03-05T07:09:17;100653.00;;;5.90
16956;BMP180;8594;52.052;8.354;2023-03-05T07:11:45;100648.00;;;6.20
16956;BMP180;8594;52.052;8.354;2023-03-05T07:14:13;100640.00;;;5.80
16956;BMP180;8594;52.052;8.354;2023-03-05T07:16:40;100645.00;;;6.10
16956;BMP180;8594;52.052;8.354;2023-03-05T07:19:07;100640.00;;;6.40
16956;BMP180;8594;52.052;8.354;2023-03-05T07:21:35;100641.00;;;6.30
16956;BMP180;8594;52.052;8.354;2023-03-05T07:24:04;100635.00;;;6.10
16956;BMP180;8594;52.052;8.354;2023-03-05T07:26:32;100628.00;;;5.90
16956;BMP180;8594;52.052;8.354;2023-03-05T07:28:59;100641.00;;;5.70
16956;BMP180;8594;52.052;8.354;2023-03-05T07:31:28;100637.00;;;5.80
16956;BMP180;8594;52.052;8.354;2023-03-05T07:33:58;100631.00;;;6.20
16956;BMP180;8594;52.052;8.354;2023-03-05T07:36:26;100632.00;;;6.10
16956;BMP180;8594;52.052;8.354;2023-03-05T07:38:53;100640.00;;;6.30
16956;BMP180;8594;52.052;8.354;2023-03-05T07:41:20;100635.00;;;6.30
16956;BMP180;8594;52.052;8.354;2023-03-05T07:43:50;100633.00;;;6.80
16956;BMP180;8594;52.052;8.354;2023-03-05T07:46:21;100624.00;;;6.40
16956;BMP180;8594;52.052;8.354;2023-03-05T07:48:49;100623.00;;;6.10
16956;BMP180;8594;52.052;8.354;2023-03-05T07:51:18;100628.00;;;6.30
16956;BMP180;8594;52.052;8.354;2023-03-05T07:53:47;100614.00;;;6.50
16956;BMP180;8594;52.052;8.354;2023-03-05T07:56:21;100623.00;;;6.70
16956;BMP180;8594;52.052;8.354;2023-03-05T07:58:48;100623.00;;;6.40
16956;BMP180;8594;52.052;8.354;2023-03-05T08:01:15;100616.00;;;6.40
16956;BMP180;8594;52.052;8.354;2023-03-05T08:03:43;100612.00;;;6.00
16956;BMP180;8594;52.052;8.354;2023-03-05T08:06:12;100608.00;;;5.90
16956;BMP180;8594;52.052;8.354;2023-03-05T08:08:39;100601.00;;;6.40
16956;BMP180;8594;52.052;8.354;2023-03-05T08:11:08;100602.00;;;6.20
16956;BMP180;8594;52.052;8.354;2023-03-05T08:13:36;100601.00;;;6.40
16956;BMP180;8594;52.052;8.354;2023-03-05T08:16:05;100602.00;;;6.60
16956;BMP180;8594;52.052;8.354;2023-03-05T08:18:32;100599.00;;;6.70
16956;BMP180;8594;52.052;8.354;2023-03-05T08:21:00;100593.00;;;7.00
16956;BMP180;8594;52.052;8.354;2023-03-05T08:23:28;100596.00;;;7.00
16956;BMP180;8594;52.052;8.354;2023-03-05T08:25:56;100595.00;;;6.30
16956;BMP180;8594;52.052;8.354;2023-03-05T08:28:23;100600.00;;;6.80
16956;BMP180;8594;52.052;8.354;2023-03-05T08:30:50;100593.00;;;6.80
16956;BMP180;8594;52.052;8.354;2023-03-05T08:33:17;100600.00;;;7.10
16956;BMP180;8594;52.052;8.354;2023-03-05T08:35:44;100602.00;;;6.70
16956;BMP180;8594;52.052;8.354;2023-03-05T08:38:11;100599.00;;;6.80
16956;BMP180;8594;52.052;8.354;2023-03-05T08:40:40;100598.00;;;7.00
16956;BMP180;8594;52.052;8.354;2023-03-05T08:43:08;100591.00;;;6.70
16956;BMP180;8594;52.052;8.354;2023-03-05T08:45:35;100588.00;;;7.00
16956;BMP180;8594;52.052;8.354;2023-03-05T08:48:02;100594.00;;;7.20
16956;BMP180;8594;52.052;8.354;2023-03-05T08:50:28;100583.00;;;7.30
16956;BMP180;8594;52.052;8.354;2023-03-05T08:52:55;100582.00;;;6.90
16956;BMP180;8594;52.052;8.354;2023-03-05T08:55:22;100582.00;;;6.90
16956;BMP180;8594;52.052;8.354;2023-03-05T08:57:50;100589.00;;;6.90
16956;BMP180;8594;52.052;8.354;2023-03-05T09:00:18;100575.00;;;7.00
16956;BMP180;8594;52.052;8.354;2023-03-05T09:02:45;100581.00;;;7.10
16956;BMP180;8594;52.052;8.354;2023-03-05T09:05:14;100581.00;;;7.10
16956;BMP180;8594;52.052;8.354;2023-03-05T09:07:41;100579.00;;;6.70
16956;BMP180;8594;52.052;8.354;2023-03-05T09:10:09;100576.00;;;7.00
16956;BMP180;8594;52.052;8.354;2023-03-05T09:12:38;100570.00;;;6.80
16956;BMP180;8594;52.052;8.354;2023-03-05T09:15:09;100571.00;;;6.50
16956;BMP180;8594;52.052;8.354;2023-03-05T09:17:38;100573.00;;;7.00
16956;BMP180;8594;52.052;8.354;2023-03-05T09:20:11;100564.00;;;7.00
16956;BMP180;8594;52.052;8.354;2023-03-05T09:22:43;100563.00;;;7.30
16956;BMP180;8594;52.052;8.354;2023-03-05T09:25:11;100569.00;;;7.20
16956;BMP180;8594;52.052;8.354;2023-03-05T09:27:38;100561.00;;;7.30
16956;BMP180;8594;52.052;8.354;2023-03-05T09:30:08;100559.00;;;7.30
16956;BMP180;8594;52.052;8.354;2023-03-05T09:32:35;100555.00;;;7.10
16956;BMP180;8594;52.052;8.354;2023-03-05T09:35:02;100563.00;;;7.40
16956;BMP180;8594;52.052;8.354;2023-03-05T09:37:29;100558.00;;;7.60
16956;BMP180;8594;52.052;8.354;2023-03-05T09:39:57;100555.00;;;7.50
16956;BMP180;8594;52.052;8.354;2023-03-05T09:42:57;100563.00;;;7.70
16956;BMP180;8594;52.052;8.354;2023-03-05T09:45:34;100557.00;;;7.90
16956;BMP180;8594;52.052;8.354;2023-03-05T09:48:15;100562.00;;;8.20
16956;BMP180;8594;52.052;8.354;2023-03-05T09:50:47;100555.00;;;7.90
16956;BMP180;8594;52.052;8.354;2023-03-05T09:53:26;100550.00;;;8.10
16956;BMP180;8594;52.052;8.354;2023-03-05T09:56:02;100547.00;;;8.60
16956;BMP180;8594;52.052;8.354;2023-03-05T09:58:35;100551.00;;;8.20
16956;BMP180;8594;52.052;8.354;2023-03-05T10:01:09;100546.00;;;8.00
16956;BMP180;8594;52.052;8.354;2023-03-05T10:03:51;100542.00;;;8.50
16956;BMP180;8594;52.052;8.354;2023-03-05T10:06:24;100552.00;;;8.00
16956;BMP180;8594;52.052;8.354;2023-03-05T10:08:55;100557.00;;;8.30
16956;BMP180;8594;52.052;8.354;2023-03-05T10:11:39;100540.00;;;8.00
16956;BMP180;8594;52.052;8.354;2023-03-05T10:14:14;100542.00;;;8.30
16956;BMP180;8594;52.052;8.354;2023-03-05T10:17:49;100533.00;;;7.60
16956;BMP180;8594;52.052;8.354;2023-03-05T10:20:45;100545.00;;;7.80
16956;BMP180;8594;52.052;8.354;2023-03-05T10:23:26;100535.00;;;7.50
16956;BMP180;8594;52.052;8.354;2023-03-05T10:26:22;100535.00;;;8.00
16956;BMP180;8594;52.052;8.354;2023-03-05T10:29:06;100533.00;;;7.60
16956;BMP180;8594;52.052;8.354;2023-03-05T10:31:58;100524.00;;;7.80
16956;BMP180;8594;52.052;8.354;2023-03-05T10:37:57;100506.00;;;6.90
16956;BMP180;8594;52.052;8.354;2023-03-05T10:40:35;100512.00;;;7.90
16956;BMP180;8594;52.052;8.354;2023-03-05T10:43:20;100515.00;;;8.20
16956;BMP180;8594;52.052;8.354;2023-03-05T10:45:52;100505.00;;;8.20
16956;BMP180;8594;52.052;8.354;2023-03-05T10:48:30;100502.00;;;7.90
16956;BMP180;8594;52.052;8.354;2023-03-05T10:51:11;100496.00;;;8.10
16956;BMP180;8594;52.052;8.354;2023-03-05T10:53:52;100497.00;;;8.40
16956;BMP180;8594;52.052;8.354;2023-03-05T10:56:23;100495.00;;;8.10
16956;BMP180;8594;52.052;8.354;2023-03-05T10:58:51;100492.00;;;7.80
16956;BMP180;8594;52.052;8.354;2023-03-05T11:01:22;100504.00;;;7.70
16956;BMP180;8594;52.052;8.354;2023-03-05T11:03:54;100491.00;;;8.00
16956;BMP180;8594;52.052;8.354;2023-03-05T11:06:36;100488.00;;;8.20
16956;BMP180;8594;52.052;8.354;2023-03-05T11:09:20;100487.00;;;8.40
16956;BMP180;8594;52.052;8.354;2023-03-05T11:12:11;100484.00;;;8.50
16956;BMP180;8594;52.052;8.354;2023-03-05T11:14:41;100481.00;;;7.80
16956;BMP180;8594;52.052;8.354;2023-03-05T11:17:32;100479.00;;;8.40
16956;BMP180;8594;52.052;8.354;2023-03-05T11:20:29;100471.00;;;8.30
16956;BMP180;8594;52.052;8.354;2023-03-05T11:23:12;100462.00;;;9.30
16956;BMP180;8594;52.052;8.354;2023-03-05T11:25:53;100461.00;;;9.80
16956;BMP180;8594;52.052;8.354;2023-03-05T11:28:25;100457.00;;;9.20
16956;BMP180;8594;52.052;8.354;2023-03-05T11:31:05;100457.00;;;9.00
16956;BMP180;8594;52.052;8.354;2023-03-05T11:33:34;100456.00;;;8.80
16956;BMP180;8594;52.052;8.354;2023-03-05T11:36:30;100449.00;;;9.10
16956;BMP180;8594;52.052;8.354;2023-03-05T11:39:10;100448.00;;;8.90
16956;BMP180;8594;52.052;8.354;2023-03-05T11:41:40;100453.00;;;9.10
16956;BMP180;8594;52.052;8.354;2023-03-05T11:44:13;100436.00;;;9.30
16956;BMP180;8594;52.052;8.354;2023-03-05T11:46:45;100433.00;;;10.30
16956;BMP180;8594;52.052;8.354;2023-03-05T11:49:17;100437.00;;;10.50
16956;BMP180;8594;52.052;8.354;2023-03-05T11:51:55;100439.00;;;10.80
16956;BMP180;8594;52.052;8.354;2023-03-05T11:54:32;100423.00;;;10.30
16956;BMP180;8594;52.052;8.354;2023-03-05T11:57:03;100427.00;;;10.90
16956;BMP180;8594;52.052;8.354;2023-03-05T11:59:35;100414.00;;;10.50
16956;BMP180;8594;52.052;8.354;2023-03-05T12:02:17;100424.00;;;10.50
16956;BMP180;8594;52.052;8.354;2023-03-05T12:04:44;100422.00;;;10.00
16956;BMP180;8594;52.052;8.354;2023-03-05T12:07:15;100412.00;;;9.80
16956;BMP180;8594;52.052;8.354;2023-03-05T12:09:46;100408.00;;;9.30
16956;BMP180;8594;52.052;8.354;2023-03-05T12:12:31;100409.00;;;9.70
16956;BMP180;8594;52.052;8.354;2023-03-05T12:15:23;100405.00;;;9.70
16956;BMP180;8594;52.052;8.354;2023-03-05T12:18:04;100405.00;;;8.70
16956;BMP180;8594;52.052;8.354;2023-03-05T12:20:41;100407.00;;;8.60
16956;BMP180;8594;52.052;8.354;2023-03-05T12:23:16;100398.00;;;9.10
16956;BMP180;8594;52.052;8.354;2023-03-05T12:25:47;100397.00;;;9.30
16956;BMP180;8594;52.052;8.354;2023-03-05T12:28:46;100388.00;;;9.70
16956;BMP180;8594;52.052;8.354;2023-03-05T12:31:04;100383.00;;;9.40
16956;BMP180;8594;52.052;8.354;2023-03-05T12:33:35;100385.00;;;10.00
16956;BMP180;8594;52.052;8.354;2023-03-05T12:36:34;100374.00;;;10.40
16956;BMP180;8594;52.052;8.354;2023-03-05T12:39:41;100381.00;;;11.00
16956;BMP180;8594;52.052;8.354;2023-03-05T12:42:50;100369.00;;;10.70
16956;BMP180;8594;52.052;8.354;2023-03-05T12:45:36;100364.00;;;10.70
16956;BMP180;8594;52.052;8.354;2023-03-05T12:48:42;100366.00;;;10.30
16956;BMP180;8594;52.052;8.354;2023-03-05T12:51:27;100366.00;;;10.40
16956;BMP180;8594;52.052;8.354;2023-03-05T12:53:54;100361.00;;;10.10
16956;BMP180;8594;52.052;8.354;2023-03-05T12:56:28;100348.00;;;9.90
16956;BMP180;8594;52.052;8.354;2023-03-05T12:58:59;100352.00;;;10.20
16956;BMP180;8594;52.052;8.354;2023-03-05T13:01:41;100345.00;;;10.30
16956;BMP180;8594;52.052;8.354;2023-03-05T13:04:16;100347.00;;;10.00
16956;BMP180;8594;52.052;8.354;2023-03-05T13:06:46;100341.00;;;9.80
16956;BMP180;8594;52.052;8.354;2023-03-05T13:09:25;100339.00;;;10.70
16956;BMP180;8594;52.052;8.354;2023-03-05T13:11:55;100331.00;;;10.60
16956;BMP180;8594;52.052;8.354;2023-03-05T13:14:32;100323.00;;;10.60
16956;BMP180;8594;52.052;8.354;2023-03-05T13:16:59;100320.00;;;11.00
16956;BMP180;8594;52.052;8.354;2023-03-05T13:19:27;100320.00;;;11.30
16956;BMP180;8594;52.052;8.354;2023-03-05T13:22:01;100306.00;;;11.00
16956;BMP180;8594;52.052;8.354;2023-03-05T13:24:29;100319.00;;;11.00
16956;BMP180;8594;52.052;8.354;2023-03-05T13:26:56;100314.00;;;11.10
16956;BMP180;8594;52.052;8.354;2023-03-05T13:29:27;100310.00;;;11.30
16956;BMP180;8594;52.052;8.354;2023-03-05T13:31:58;100298.00;;;11.30
16956;BMP180;8594;52.052;8.354;2023-03-05T13:34:27;100303.00;;;10.80
16956;BMP180;8594;52.052;8.354;2023-03-05T13:36:59;100302.00;;;11.20
16956;BMP180;8594;52.052;8.354;2023-03-05T13:39:29;100295.00;;;11.30
16956;BMP180;8594;52.052;8.354;2023-03-05T13:42:02;100280.00;;;11.20
16956;BMP180;8594;52.052;8.354;2023-03-05T13:44:33;100281.00;;;11.20
16956;BMP180;8594;52.052;8.354;2023-03-05T13:47:09;100282.00;;;11.20
16956;BMP180;8594;52.052;8.354;2023-03-05T13:49:39;100286.00;;;10.60
16956;BMP180;8594;52.052;8.354;2023-03-05T13:52:06;100277.00;;;11.10
16956;BMP180;8594;52.052;8.354;2023-03-05T13:54:33;100282.00;;;10.70
16956;BMP180;8594;52.052;8.354;2023-03-05T13:57:04;100272.00;;;11.00
16956;BMP180;8594;52.052;8.354;2023-03-05T13:59:34;100270.00;;;11.20
16956;BMP180;8594;52.052;8.354;2023-03-05T14:02:17;100270.00;;;10.50
16956;BMP180;8594;52.052;8.354;2023-03-05T14:04:46;100257.00;;;10.70
16956;BMP180;8594;52.052;8.354;2023-03-05T14:07:30;100255.00;;;10.40
16956;BMP180;8594;52.052;8.354;2023-03-05T14:09:58;100257.00;;;10.20
16956;BMP180;8594;52.052;8.354;2023-03-05T14:12:32;100248.00;;;10.20
16956;BMP180;8594;52.052;8.354;2023-03-05T14:15:04;100243.00;;;9.60
16956;BMP180;8594;52.052;8.354;2023-03-05T14:17:44;100244.00;;;10.10
16956;BMP180;8594;52.052;8.354;2023-03-05T14:20:22;100253.00;;;10.50
16956;BMP180;8594;52.052;8.354;2023-03-05T14:22:52;100242.00;;;10.30
16956;BMP180;8594;52.052;8.354;2023-03-05T14:25:32;100245.00;;;9.70
16956;BMP180;8594;52.052;8.354;2023-03-05T14:28:03;100237.00;;;9.80
16956;BMP180;8594;52.052;8.354;2023-03-05T14:30:32;100241.00;;;9.40
16956;BMP180;8594;52.052;8.354;2023-03-05T14:33:02;100242.00;;;9.50
16956;BMP180;8594;52.052;8.354;2023-03-05T14:35:30;100233.00;;;9.40
16956;BMP180;8594;52.052;8.354;2023-03-05T14:37:58;100222.00;;;9.20
16956;BMP180;8594;52.052;8.354;2023-03-05T14:40:31;100221.00;;;9.20
16956;BMP180;8594;52.052;8.354;2023-03-05T14:42:59;100217.00;;;9.40